Time;durP1;ratioP1;P1;durP2;ratioP2;P2;SDS_P1;SDS_P2;PMS_P1;PMS_P2;Temp;Humidity;BMP_temperature;BMP_pressure;BME280_temperature;BME280_humidity;BME280_pressure;Samples;Min_cycle;Max_cycle;Signal;HPM_P1;HPM_P2
2024/03/15 00:00:18;;;;;;;2.83;2.20;;;;;;;4.21;77.79;99560.16;5099781;28;20044;-66
2024/03/15 00:02:47;;;;;;;1.42;1.33;;;;;;;4.16;77.75;99567.63;5100168;28;20342;-67
2024/03/15 00:05:19;;;;;;;6.70;1.52;;;;;;;4.16;77.87;99561.72;5099673;28;20042;-67
2024/03/15 00:07:48;;;;;;;1.27;1.17;;;;;;;4.14;78.00;99565.88;5083958;28;20070;-67
2024/03/15 00:10:16;;;;;;;2.22;2.03;;;;;;;4.05;77.60;99559.78;5099886;28;20554;-67
2024/03/15 00:12:45;;;;;;;1.33;1.23;;;;;;;4.06;77.85;99561.50;5099722;28;20157;-66
2024/03/15 00:15:15;;;;;;;1.27;1.17;;;;;;;4.13;77.92;99561.66;5099571;28;20039;-67
2024/03/15 00:17:44;;;;;;;3.30;2.80;;;;;;;4.19;78.49;99551.69;5083504;28;20040;-67
2024/03/15 00:20:12;;;;;;;0.75;0.75;;;;;;;4.16;77.98;99531.41;5082799;28;20654;-67
2024/03/15 00:22:42;;;;;;;5.72;2.40;;;;;;;4.22;78.09;99562.72;5099663;28;20500;-67
2024/03/15 00:25:13;;;;;;;0.80;0.80;;;;;;;4.28;78.20;99557.81;5099442;28;20040;-66
2024/03/15 00:27:42;;;;;;;0.90;0.90;;;;;;;4.32;78.16;99553.69;5083746;28;20040;-67
2024/03/15 00:30:12;;;;;;;2.50;1.83;;;;;;;4.28;77.88;99551.91;5100070;28;20035;-67
2024/03/15 00:32:41;;;;;;;3.58;2.40;;;;;;;4.28;78.29;99551.91;5082641;28;20114;-67
2024/03/15 00:35:10;;;;;;;1.77;1.60;;;;;;;4.29;77.96;99546.91;5099015;28;20042;-67
2024/03/15 00:37:39;;;;;;;2.75;2.00;;;;;;;4.29;78.07;99548.56;5082827;28;20490;-67
2024/03/15 00:40:08;;;;;;;0.80;0.80;;;;;;;4.29;77.86;99543.50;5082713;28;20143;-67
2024/03/15 00:42:37;;;;;;;2.45;1.48;;;;;;;4.32;78.22;99544.41;5082789;28;20096;-66
2024/03/15 00:45:06;;;;;;;2.90;2.53;;;;;;;4.33;77.82;99541.06;5099044;28;20036;-67
2024/03/15 00:47:36;;;;;;;4.10;1.80;;;;;;;4.33;78.01;99536.03;5099522;28;20486;-67
2024/03/15 00:50:06;;;;;;;1.20;1.15;;;;;;;4.33;77.53;99532.63;5099164;28;20044;-67
2024/03/15 00:52:34;;;;;;;2.33;1.15;;;;;;;4.34;77.81;99536.88;5099350;28;20427;-67
2024/03/15 00:55:03;;;;;;;2.47;2.17;;;;;;;4.35;78.07;99538.56;5098576;28;20050;-67
2024/03/15 00:57:32;;;;;;;2.28;1.65;;;;;;;4.41;77.97;99536.19;5097936;28;20052;-67
2024/03/15 01:00:01;;;;;;;0.50;0.50;;;;;;;4.44;77.94;99537.09;5099010;28;20036;-67
2024/03/15 01:02:30;;;;;;;1.25;1.15;;;;;;;4.43;77.40;99524.44;5099009;28;20028;-66
2024/03/15 01:04:59;;;;;;;1.63;1.52;;;;;;;4.40;77.70;99521.84;5098817;28;20035;-67
2024/03/15 01:07:29;;;;;;;1.60;1.50;;;;;;;4.37;77.82;99521.78;5098968;28;20066;-67
2024/03/15 01:09:57;;;;;;;2.63;1.63;;;;;;;4.33;78.21;99520.00;5098539;28;20039;-66
2024/03/15 01:12:27;;;;;;;1.10;0.70;;;;;;;4.31;78.26;99521.66;5098477;28;20036;-67
2024/03/15 01:14:55;;;;;;;1.63;1.42;;;;;;;4.33;78.38;99530.97;5098681;28;20039;-67
2024/03/15 01:17:24;;;;;;;2.17;1.63;;;;;;;4.37;78.64;99526.81;5098305;28;20500;-67
2024/03/15 01:19:53;;;;;;;1.80;0.80;;;;;;;4.44;78.52;99533.75;5082071;28;20287;-67
2024/03/15 01:22:22;;;;;;;0.30;0.30;;;;;;;4.52;78.42;99532.22;5081765;28;20493;-67
2024/03/15 01:24:52;;;;;;;0.93;0.90;;;;;;;4.60;78.31;99530.69;5098572;28;20119;-66
2024/03/15 01:27:22;;;;;;;;;;;;;;;4.67;78.04;99532.53;5098702;28;20043;-67
2024/03/15 01:29:53;;;;;;;1.25;1.15;;;;;;;4.70;77.95;99532.59;5114821;28;19920;-66
2024/03/15 01:32:22;;;;;;;0.47;0.47;;;;;;;4.69;78.38;99531.75;5082259;28;20047;-66
2024/03/15 01:34:51;;;;;;;1.67;1.58;;;;;;;4.65;78.38;99509.72;5082228;28;20035;-67
2024/03/15 01:37:20;;;;;;;0.37;0.37;;;;;;;4.74;78.56;99519.19;5098238;28;20032;-67
2024/03/15 01:39:48;;;;;;;1.20;1.15;;;;;;;4.72;78.33;99516.66;5098436;28;20282;-67
2024/03/15 01:42:17;;;;;;;1.20;1.00;;;;;;;4.67;78.17;99522.41;5098244;28;20035;-66
2024/03/15 01:44:52;;;;;;;1.53;0.83;;;;;;;4.67;78.20;99513.16;5081402;28;20118;-67
2024/03/15 01:47:21;;;;;;;0.73;0.73;;;;;;;4.65;78.28;99519.00;5098335;28;20409;-67
2024/03/15 01:49:50;;;;;;;8.57;1.40;;;;;;;4.66;78.49;99510.59;5097575;28;20546;-67
2024/03/15 01:52:20;;;;;;;1.48;1.30;;;;;;;4.71;78.42;99509.00;5097712;28;20073;-67
2024/03/15 01:54:49;;;;;;;1.70;1.20;;;;;;;4.74;78.44;99509.06;5097796;28;20044;-67
2024/03/15 01:57:18;;;;;;;0.73;0.73;;;;;;;4.74;78.61;99509.94;5097500;28;20043;-67
2024/03/15 01:59:47;;;;;;;2.58;2.35;;;;;;;4.76;78.83;99512.47;5081241;28;20046;-67
2024/03/15 02:02:16;;;;;;;1.50;1.33;;;;;;;4.78;78.54;99504.91;5081102;28;20079;-67
2024/03/15 02:04:53;;;;;;;4.07;2.75;;;;;;;4.76;78.51;99499.84;5081263;28;20801;-67
2024/03/15 02:07:27;;;;;;;1.17;1.10;;;;;;;4.80;78.82;99509.19;5098593;28;20138;-67
2024/03/15 02:09:56;;;;;;;1.65;1.55;;;;;;;4.68;78.69;99483.66;5081905;28;20047;-66
2024/03/15 02:12:25;;;;;;;3.43;1.87;;;;;;;4.76;78.41;99507.44;5080644;28;20517;-67
2024/03/15 02:14:54;;;;;;;2.13;1.97;;;;;;;4.78;78.63;99502.38;5097265;28;20054;-67
2024/03/15 02:17:23;;;;;;;0.70;0.70;;;;;;;4.84;78.50;99507.56;5097447;28;20137;-66
2024/03/15 02:19:51;;;;;;;9.40;2.07;;;;;;;4.87;78.64;99505.13;5064314;28;20047;-67
2024/03/15 02:22:20;;;;;;;0.77;0.77;;;;;;;4.83;78.63;99511.78;5064584;28;20040;-67
2024/03/15 02:24:49;;;;;;;1.30;1.20;;;;;;;4.72;78.21;99505.66;5081554;28;20565;-67
2024/03/15 02:27:18;;;;;;;1.52;1.42;;;;;;;4.67;78.39;99512.31;5096907;28;20047;-66
2024/03/15 02:29:47;;;;;;;0.63;0.63;;;;;;;4.59;78.45;99513.81;5096898;28;20067;-66
2024/03/15 02:32:17;;;;;;;1.50;1.40;;;;;;;4.55;78.88;99523.03;5097240;28;20475;-67
2024/03/15 02:34:46;;;;;;;2.03;1.63;;;;;;;4.54;78.94;99520.44;5080974;28;20044;-67
2024/03/15 02:37:16;;;;;;;1.52;1.42;;;;;;;4.58;78.69;99522.25;5097198;28;20134;-67
2024/03/15 02:39:46;;;;;;;1.90;1.23;;;;;;;4.58;78.76;99523.06;5080915;28;20039;-66
2024/03/15 02:42:15;;;;;;;0.80;0.80;;;;;;;4.56;78.56;99526.38;5047211;28;20044;-67
2024/03/15 02:44:43;;;;;;;1.25;1.15;;;;;;;4.57;79.03;99521.38;5093568;28;20040;-67
2024/03/15 02:47:12;;;;;;;1.15;1.02;;;;;;;4.54;78.79;99525.50;5093198;28;20032;-67
2024/03/15 02:49:41;;;;;;;1.60;1.50;;;;;;;4.51;78.69;99526.28;5093008;28;20457;-67
2024/03/15 02:52:10;;;;;;;0.70;0.70;;;;;;;4.43;78.54;99529.50;5092846;28;20509;-67
2024/03/15 02:54:39;;;;;;;1.65;1.23;;;;;;;4.42;78.63;99525.25;5093117;28;20049;-67
2024/03/15 02:57:08;;;;;;;1.40;1.30;;;;;;;4.40;78.48;99521.84;5093105;28;20043;-66
2024/03/15 02:59:37;;;;;;;0.80;0.80;;;;;;;4.39;78.74;99527.72;5076514;28;20067;-67
2024/03/15 03:02:08;;;;;;;1.38;1.30;;;;;;;4.35;78.82;99529.31;5092745;28;20490;-67
2024/03/15 03:04:37;;;;;;;1.85;1.60;;;;;;;4.39;78.86;99531.09;5092775;28;20048;-67
2024/03/15 03:07:06;;;;;;;1.17;1.17;;;;;;;4.42;79.00;99535.34;5093059;28;20039;-66
2024/03/15 03:09:35;;;;;;;0.63;0.63;;;;;;;4.48;78.78;99536.34;5092504;28;20040;-67
2024/03/15 03:12:06;;;;;;;1.23;1.15;;;;;;;4.47;78.56;99533.78;5092951;28;20039;-67
2024/03/15 03:14:35;;;;;;;0.90;0.90;;;;;;;4.44;78.96;99534.56;5076437;28;20078;-67
2024/03/15 03:17:05;;;;;;;6.93;1.70;;;;;;;4.49;78.83;99537.19;5092889;28;20097;-67
2024/03/15 03:19:34;;;;;;;2.35;1.73;;;;;;;4.39;78.50;99547.94;5092213;28;20047;-67
2024/03/15 03:22:03;;;;;;;1.52;1.42;;;;;;;4.19;78.95;99516.34;5092489;28;20082;-67
2024/03/15 03:24:32;;;;;;;2.03;1.27;;;;;;;4.27;79.09;99540.09;5092815;28;20040;-67
2024/03/15 03:27:01;;;;;;;1.90;1.80;;;;;;;4.24;79.19;99540.88;5092489;28;20043;-66
2024/03/15 03:29:29;;;;;;;2.17;1.38;;;;;;;4.25;79.51;99536.69;5092584;28;20040;-67
2024/03/15 03:31:59;;;;;;;0.93;0.93;;;;;;;4.37;79.37;99547.91;5092383;28;20137;-67
2024/03/15 03:34:27;;;;;;;1.02;1.02;;;;;;;4.47;79.23;99541.38;5092624;28;20044;-66
2024/03/15 03:36:56;;;;;;;1.75;1.65;;;;;;;4.51;79.56;99546.50;5092591;28;20393;-67
2024/03/15 03:39:25;;;;;;;1.27;1.17;;;;;;;4.51;79.21;99545.69;5075764;28;20387;-67
2024/03/15 03:41:55;;;;;;;1.52;1.42;;;;;;;4.50;79.38;99549.88;5092736;28;20074;-67
2024/03/15 03:44:26;;;;;;;1.27;0.95;;;;;;;4.52;79.25;99545.69;5092572;28;20043;-67
2024/03/15 03:46:55;;;;;;;0.95;0.95;;;;;;;4.56;79.49;99544.94;5092641;28;20379;-67
2024/03/15 03:49:23;;;;;;;0.63;0.63;;;;;;;4.56;79.62;99549.13;5092551;28;20047;-67
2024/03/15 03:51:52;;;;;;;0.30;0.30;;;;;;;4.47;79.94;99546.41;5092138;28;20043;-67
2024/03/15 03:54:21;;;;;;;;;;;;;;;4.47;79.84;99546.41;5075953;28;20383;-67
2024/03/15 03:56:50;;;;;;;1.50;1.40;;;;;;;4.45;79.93;99545.53;5059136;28;19969;-67
2024/03/15 03:59:19;;;;;;;1.03;1.03;;;;;;;4.34;80.23;99522.59;5092390;28;20162;-67
2024/03/15 04:01:48;;;;;;;2.90;1.60;;;;;;;4.52;80.36;99522.09;5092365;28;20268;-67
2024/03/15 04:04:17;;;;;;;0.65;0.65;;;;;;;4.56;80.39;99533.97;5092122;28;20093;-67
2024/03/15 04:06:49;;;;;;;1.40;1.30;;;;;;;4.62;80.20;99540.03;5091931;28;20051;-66
2024/03/15 04:09:19;;;;;;;1.05;1.05;;;;;;;4.64;80.12;99532.47;5092401;28;20048;-67
2024/03/15 04:11:48;;;;;;;1.33;1.20;;;;;;;4.62;79.90;99529.06;5091974;28;20046;-66
2024/03/15 04:14:17;;;;;;;0.82;0.82;;;;;;;4.66;80.04;99534.19;5075756;28;20401;-67
2024/03/15 04:16:47;;;;;;;1.33;1.23;;;;;;;4.60;79.84;99533.22;5092058;28;20507;-67
2024/03/15 04:19:15;;;;;;;1.38;1.27;;;;;;;4.53;79.85;99531.41;5092329;28;20047;-67
2024/03/15 04:21:44;;;;;;;2.27;1.73;;;;;;;4.53;79.78;99537.31;5092200;28;20036;-66
2024/03/15 04:24:13;;;;;;;2.57;1.83;;;;;;;4.49;79.38;99538.03;5092293;28;20093;-67
2024/03/15 04:26:42;;;;;;;0.70;0.70;;;;;;;4.52;79.54;99547.38;5092119;28;20272;-67
2024/03/15 04:29:11;;;;;;;1.13;1.02;;;;;;;4.57;79.65;99540.75;5091987;28;20040;-66
2024/03/15 04:31:40;;;;;;;1.23;1.20;;;;;;;4.55;79.52;99542.38;5091828;28;20141;-66
2024/03/15 04:34:11;;;;;;;2.15;2.00;;;;;;;4.50;79.70;99538.91;5078711;28;20071;-67
2024/03/15 04:36:43;;;;;;;5.85;2.80;;;;;;;4.49;79.16;99539.72;5079630;28;20418;-67
2024/03/15 04:39:15;;;;;;;1.42;1.33;;;;;;;4.52;79.69;99548.22;5079815;28;20501;-67
2024/03/15 04:41:44;;;;;;;2.60;2.40;;;;;;;4.46;79.32;99547.25;5062702;28;20113;-66
2024/03/15 04:44:13;;;;;;;0.77;0.77;;;;;;;4.40;79.39;99547.97;5078986;28;20032;-67
2024/03/15 04:46:41;;;;;;;1.87;1.63;;;;;;;4.27;79.09;99532.53;5095518;28;20036;-67
2024/03/15 04:49:10;;;;;;;1.77;1.57;;;;;;;4.28;79.15;99541.78;5095495;28;20035;-66
2024/03/15 04:51:39;;;;;;;1.83;1.73;;;;;;;4.27;79.11;99537.56;5094995;28;20047;-66
2024/03/15 04:54:08;;;;;;;1.77;1.67;;;;;;;4.24;79.50;99545.06;5095054;28;20085;-68
2024/03/15 04:56:37;;;;;;;4.38;3.10;;;;;;;4.20;78.80;99543.31;5095710;28;20386;-67
2024/03/15 04:59:06;;;;;;;3.47;2.53;;;;;;;4.13;79.10;99544.00;5079163;28;20042;-67
2024/03/15 05:01:35;;;;;;;7.83;5.10;;;;;;;4.07;79.29;99548.09;5078690;28;20593;-66
2024/03/15 05:04:05;;;;;;;2.33;2.08;;;;;;;4.07;79.20;99547.22;5061786;28;20047;-67
2024/03/15 05:06:34;;;;;;;4.55;3.67;;;;;;;4.06;79.09;99556.47;5095138;28;20375;-66
2024/03/15 05:09:03;;;;;;;2.03;1.85;;;;;;;4.05;79.16;99546.34;5078177;28;20513;-67
2024/03/15 05:11:39;;;;;;;5.03;3.78;;;;;;;4.04;79.19;99557.25;5079182;28;20048;-66
2024/03/15 05:14:08;;;;;;;4.50;4.10;;;;;;;4.06;79.18;99559.00;5095299;28;20037;-67
2024/03/15 05:16:37;;;;;;;2.30;2.10;;;;;;;3.85;79.58;99520.63;5094788;28;20436;-67
2024/03/15 05:19:06;;;;;;;6.22;2.25;;;;;;;4.07;80.04;99555.66;5061577;28;20157;-67
2024/03/15 05:21:35;;;;;;;2.70;2.50;;;;;;;4.10;79.78;99561.59;5078169;28;20448;-66
2024/03/15 05:24:04;;;;;;;2.78;2.38;;;;;;;4.08;79.80;99554.81;5094749;28;20089;-67
2024/03/15 05:26:35;;;;;;;1.60;1.50;;;;;;;4.12;79.58;99550.72;5094585;28;20119;-67
2024/03/15 05:29:04;;;;;;;1.60;1.50;;;;;;;4.15;79.56;99570.13;5094745;28;20452;-67
2024/03/15 05:31:33;;;;;;;1.03;0.93;;;;;;;4.22;79.69;99566.94;5094276;28;20085;-66
2024/03/15 05:34:03;;;;;;;1.00;1.00;;;;;;;4.25;80.00;99561.94;5094990;28;20809;-67
2024/03/15 05:36:32;;;;;;;1.25;1.20;;;;;;;4.36;80.17;99560.50;5078266;28;20102;-67
2024/03/15 05:39:03;;;;;;;;;;;;;;;4.43;80.08;99569.91;5094603;28;20052;-67
2024/03/15 05:41:32;;;;;;;0.60;0.60;;;;;;;4.52;80.12;99572.63;5078325;28;20373;-66
2024/03/15 05:44:00;;;;;;;0.32;0.32;;;;;;;4.60;80.00;99576.19;5093601;28;20040;-67
2024/03/15 05:46:29;;;;;;;1.17;1.10;;;;;;;4.71;79.67;99572.19;5094297;28;20040;-67
2024/03/15 05:48:58;;;;;;;0.82;0.82;;;;;;;4.76;79.77;99565.56;5077650;28;20048;-66
2024/03/15 05:51:27;;;;;;;1.42;1.33;;;;;;;4.89;79.58;99570.06;5094116;28;20040;-67
2024/03/15 05:53:56;;;;;;;;;;;;;;;4.96;79.45;99571.88;5094642;28;20044;-67
2024/03/15 05:56:25;;;;;;;1.02;0.98;;;;;;;5.06;79.64;99567.88;5093685;28;19993;-67
2024/03/15 05:58:53;;;;;;;0.97;0.93;;;;;;;5.16;79.31;99570.56;5077205;28;20494;-67
2024/03/15 06:01:22;;;;;;;1.50;1.10;;;;;;;5.28;79.21;99570.81;5093782;28;20045;-67
2024/03/15 06:03:51;;;;;;;14.37;3.70;;;;;;;5.42;79.00;99579.50;5094083;28;20533;-67
2024/03/15 06:06:20;;;;;;;1.42;1.33;;;;;;;5.53;78.78;99569.56;5094006;28;20040;-67
2024/03/15 06:08:49;;;;;;;1.47;1.37;;;;;;;5.64;78.56;99569.78;5093896;28;20101;-67
2024/03/15 06:11:20;;;;;;;1.30;1.27;;;;;;;5.81;78.70;99573.41;5093972;28;20300;-67
2024/03/15 06:13:49;;;;;;;1.00;0.90;;;;;;;5.92;77.99;99567.75;5060869;28;20048;-67
2024/03/15 06:16:21;;;;;;;2.17;1.97;;;;;;;6.03;77.75;99575.50;5093757;28;20036;-67
2024/03/15 06:18:50;;;;;;;1.02;0.93;;;;;;;6.17;77.75;99583.31;5077636;28;20461;-67
2024/03/15 06:21:19;;;;;;;2.17;1.98;;;;;;;6.31;77.45;99582.66;5093624;28;20054;-67
2024/03/15 06:23:48;;;;;;;3.03;1.60;;;;;;;6.43;76.74;99590.44;5059759;28;20064;-67
2024/03/15 06:26:19;;;;;;;2.97;2.28;;;;;;;6.50;76.37;99592.22;5093551;28;20400;-67
2024/03/15 06:28:49;;;;;;;5.97;2.03;;;;;;;6.65;76.22;99589.91;5093591;28;20554;-67
2024/03/15 06:31:18;;;;;;;1.00;0.85;;;;;;;6.65;75.55;99589.91;5077032;28;20051;-67
2024/03/15 06:33:48;;;;;;;1.92;1.77;;;;;;;6.69;75.56;99586.59;5077665;28;20393;-67
2024/03/15 06:36:18;;;;;;;1.52;1.42;;;;;;;6.75;75.05;99590.91;5093541;28;20078;-66
2024/03/15 06:38:57;;;;;;;;;;;;;;;6.83;74.24;99594.38;5093864;28;20036;-66
2024/03/15 06:41:37;;;;;;;1.70;1.60;;;;;;;6.94;74.76;99597.03;5093370;28;19926;-66
2024/03/15 06:44:19;;;;;;;2.83;1.85;;;;;;;7.08;74.00;99595.56;5078487;28;20047;-65
2024/03/15 06:47:15;;;;;;;1.40;1.30;;;;;;;7.25;73.57;99597.44;5078334;28;20063;-66
2024/03/15 06:49:55;;;;;;;6.55;2.13;;;;;;;7.41;72.78;99590.84;5093124;28;20444;-66
2024/03/15 06:55:10;;;;;;;2.00;1.80;;;;;;;7.45;70.99;99567.16;5077461;28;20143;-66
2024/03/15 06:57:39;;;;;;;1.52;1.42;;;;;;;7.73;71.51;99588.59;5092970;28;20040;-66
2024/03/15 07:00:09;;;;;;;1.75;1.58;;;;;;;7.86;70.70;99593.81;5092697;28;20071;-66
2024/03/15 07:02:41;;;;;;;1.48;1.38;;;;;;;7.95;69.92;99591.34;5093062;28;20040;-66
2024/03/15 07:05:11;;;;;;;3.20;1.88;;;;;;;8.07;69.79;99595.66;5092779;28;20055;-67
2024/03/15 07:07:40;;;;;;;3.28;2.40;;;;;;;8.18;68.97;99593.22;5059585;28;20055;-66
2024/03/15 07:10:10;;;;;;;2.05;1.42;;;;;;;8.31;69.46;99595.00;5076239;28;20059;-66
2024/03/15 07:12:39;;;;;;;1.27;1.17;;;;;;;8.44;68.63;99591.72;5092659;28;20048;-67
2024/03/15 07:15:09;;;;;;;3.53;2.35;;;;;;;8.47;68.71;99586.66;5092482;28;20064;-67
2024/03/15 07:17:38;;;;;;;2.25;2.05;;;;;;;8.63;67.94;99580.81;5096322;28;20035;-66
2024/03/15 07:20:08;;;;;;;2.03;1.83;;;;;;;8.89;68.56;99575.84;5096474;28;20485;-67
2024/03/15 07:22:40;;;;;;;2.90;1.95;;;;;;;9.12;67.87;99585.25;5096996;28;20409;-67
2024/03/15 07:25:10;;;;;;;3.22;1.52;;;;;;;9.16;67.42;99586.13;5096757;28;20489;-67
2024/03/15 07:27:41;;;;;;;0.75;0.75;;;;;;;9.35;67.26;99588.75;5096387;28;20083;-68
2024/03/15 07:30:12;;;;;;;2.40;1.75;;;;;;;9.38;67.58;99593.84;5096660;28;20052;-68
2024/03/15 07:32:41;;;;;;;1.33;1.23;;;;;;;9.20;67.22;99563.25;5096559;28;20031;-68
2024/03/15 07:35:10;;;;;;;1.57;1.47;;;;;;;9.50;67.03;99597.28;5096624;28;20036;-68
2024/03/15 07:37:40;;;;;;;2.92;1.60;;;;;;;9.51;66.06;99593.84;5096046;28;20040;-68
2024/03/15 07:40:10;;;;;;;1.90;1.75;;;;;;;9.65;66.68;99597.28;5096448;28;20573;-68
2024/03/15 07:42:40;;;;;;;6.03;2.47;;;;;;;9.65;65.85;99589.63;5096201;28;20478;-67
2024/03/15 07:45:10;;;;;;;9.20;1.83;;;;;;;9.60;64.74;99594.72;5063336;28;20490;-68
2024/03/15 07:47:40;;;;;;;3.45;2.35;;;;;;;9.68;64.73;99593.06;5096592;28;20143;-68
2024/03/15 07:50:11;;;;;;;0.95;0.88;;;;;;;9.86;64.70;99597.34;5096150;28;20050;-68
2024/03/15 07:52:40;;;;;;;0.77;0.77;;;;;;;9.98;64.23;99597.34;5096416;28;20032;-67
2024/03/15 07:55:09;;;;;;;2.60;1.48;;;;;;;10.10;64.08;99597.34;5095803;28;20047;-67
2024/03/15 07:57:38;;;;;;;2.70;2.03;;;;;;;10.19;63.34;99594.81;5096402;28;20401;-68
2024/03/15 08:00:09;;;;;;;;;;;;;;;10.25;63.15;99597.34;5096256;28;20264;-68
2024/03/15 08:02:38;;;;;;;1.15;1.05;;;;;;;10.38;62.37;99609.25;5113423;28;20014;-68
2024/03/15 08:05:10;;;;;;;1.77;1.63;;;;;;;10.44;61.81;99609.22;5096207;28;20096;-68
2024/03/15 08:07:40;;;;;;;1.05;0.95;;;;;;;10.56;61.68;99609.19;5082701;28;20496;-68
2024/03/15 08:10:11;;;;;;;1.13;1.02;;;;;;;10.67;60.81;99612.59;5100006;28;20047;-68
2024/03/15 08:12:42;;;;;;;1.13;1.02;;;;;;;10.90;60.91;99609.13;5099853;28;20047;-68
2024/03/15 08:15:13;;;;;;;2.08;1.88;;;;;;;11.10;60.50;99604.78;5084127;28;20051;-68
2024/03/15 08:17:44;;;;;;;1.38;1.27;;;;;;;11.28;59.98;99602.13;5100143;28;20054;-67
2024/03/15 08:20:15;;;;;;;1.08;1.05;;;;;;;11.40;60.06;99596.97;5099960;28;20048;-69
2024/03/15 08:22:44;;;;;;;2.72;2.15;;;;;;;11.69;59.63;99604.50;5082773;28;20070;-68
2024/03/15 08:25:13;;;;;;;1.05;1.02;;;;;;;11.68;58.83;99602.81;5095531;28;20044;-68
2024/03/15 08:27:44;;;;;;;1.45;1.20;;;;;;;11.67;59.05;99607.03;5046268;28;20040;-68
2024/03/15 08:30:18;;;;;;;1.55;0.98;;;;;;;11.71;58.83;99608.75;5064694;28;20048;-68
2024/03/15 08:32:47;;;;;;;1.48;1.38;;;;;;;11.73;58.23;99609.59;5078723;28;20048;-68
2024/03/15 08:35:16;;;;;;;1.30;1.20;;;;;;;11.82;57.97;99606.13;5079049;28;20143;-67
2024/03/15 08:37:46;;;;;;;3.33;1.85;;;;;;;11.94;57.29;99609.44;5079080;28;20052;-69
2024/03/15 08:40:16;;;;;;;1.67;1.58;;;;;;;12.07;56.72;99603.38;5079145;28;20048;-68
2024/03/15 08:42:46;;;;;;;0.82;0.82;;;;;;;12.17;56.13;99613.50;5079416;28;20497;-67
2024/03/15 08:45:14;;;;;;;;;;;;;;;12.35;56.56;99608.25;5063159;28;20036;-68
2024/03/15 08:47:46;;;;;;;3.25;1.95;;;;;;;12.62;57.03;99608.81;5095335;28;19920;-69
2024/03/15 08:50:32;;;;;;;1.00;0.95;;;;;;;12.78;56.75;99597.56;5066679;28;20072;-68
2024/03/15 08:53:03;;;;;;;1.25;1.13;;;;;;;12.70;55.13;99608.75;5079386;28;20036;-68
2024/03/15 08:55:33;;;;;;;2.83;1.85;;;;;;;12.65;55.31;99602.81;5078750;28;20059;-68
2024/03/15 08:58:03;;;;;;;2.15;1.83;;;;;;;12.66;54.84;99589.16;5078768;28;20050;-68
2024/03/15 09:00:33;;;;;;;1.30;1.13;;;;;;;12.89;54.96;99586.34;5062547;28;20052;-67
2024/03/15 09:03:02;;;;;;;1.43;1.33;;;;;;;13.21;55.84;99592.81;5078749;28;20135;-67
2024/03/15 09:05:32;;;;;;;0.93;0.88;;;;;;;13.44;55.40;99588.22;5078508;28;20376;-67
2024/03/15 09:08:01;;;;;;;1.67;1.53;;;;;;;13.55;54.30;99594.94;5078837;28;20405;-68
2024/03/15 09:10:30;;;;;;;3.88;2.55;;;;;;;13.62;54.40;99583.72;5078181;28;20040;-68
2024/03/15 09:12:58;;;;;;;2.25;1.60;;;;;;;13.68;53.72;99586.16;5078005;28;20043;-68
2024/03/15 09:15:28;;;;;;;;;;;;;;;13.75;54.28;99587.81;5062892;28;20084;-68
2024/03/15 09:17:58;;;;;;;2.60;1.95;;;;;;;13.76;52.93;99584.34;5093931;28;19920;-68
2024/03/15 09:20:33;;;;;;;8.50;2.25;;;;;;;13.75;52.12;99582.66;5078423;28;20058;-67
2024/03/15 09:23:02;;;;;;;4.35;3.03;;;;;;;13.86;52.36;99573.09;5079085;28;20048;-68
2024/03/15 09:25:31;;;;;;;2.00;1.42;;;;;;;13.96;53.17;99577.19;5077875;28;20033;-68
2024/03/15 09:28:00;;;;;;;3.10;2.78;;;;;;;13.98;52.43;99573.75;5061560;28;20503;-68
2024/03/15 09:30:36;;;;;;;1.27;1.07;;;;;;;14.00;53.25;99574.56;5078183;28;20032;-69
2024/03/15 09:33:13;;;;;;;1.00;0.95;;;;;;;14.20;54.19;99574.22;5065403;28;20036;-69
2024/03/15 09:35:44;;;;;;;0.75;0.75;;;;;;;14.35;54.96;99579.09;5078263;28;20075;-67
2024/03/15 09:38:13;;;;;;;2.78;2.47;;;;;;;14.39;54.57;99582.50;5078322;28;20075;-68
2024/03/15 09:40:42;;;;;;;3.80;1.87;;;;;;;14.43;54.85;99579.84;5077876;28;20043;-69
2024/03/15 09:43:11;;;;;;;;;;;;;;;14.50;54.82;99576.28;5078861;28;20040;-67
2024/03/15 09:45:41;;;;;;;2.47;1.67;;;;;;;14.63;55.00;99577.75;5094369;28;19964;-68
2024/03/15 09:48:10;;;;;;;9.60;2.80;;;;;;;14.62;54.11;99568.34;5077461;28;20046;-68
2024/03/15 09:50:40;;;;;;;2.58;1.90;;;;;;;14.68;54.25;99570.78;5077808;28;20482;-68
2024/03/15 09:53:09;;;;;;;1.70;1.60;;;;;;;14.68;53.78;99565.66;5061572;28;20040;-67
2024/03/15 09:55:38;;;;;;;3.53;2.07;;;;;;;14.53;52.85;99565.97;5077340;28;20051;-67
2024/03/15 09:58:08;;;;;;;3.00;2.28;;;;;;;14.49;52.86;99569.44;5077332;28;20047;-67
2024/03/15 10:00:38;;;;;;;2.38;2.17;;;;;;;14.51;53.73;99567.72;5061424;28;20064;-68
2024/03/15 10:03:07;;;;;;;;;;;;;;;14.77;54.44;99565.50;5078053;28;20036;-67
2024/03/15 10:05:36;;;;;;;2.88;2.35;;;;;;;14.94;53.91;99562.59;5077436;28;19924;-67
2024/03/15 10:08:05;;;;;;;5.17;3.77;;;;;;;15.03;53.13;99558.97;5077030;28;20036;-67
2024/03/15 10:10:35;;;;;;;3.72;2.15;;;;;;;15.01;53.07;99555.59;5076989;28;20036;-68
2024/03/15 10:13:04;;;;;;;1.98;1.50;;;;;;;15.05;53.08;99552.06;5077186;28;20067;-67
2024/03/15 10:15:33;;;;;;;1.88;1.70;;;;;;;15.08;51.94;99541.72;5077344;28;20058;-68
2024/03/15 10:18:03;;;;;;;3.27;1.80;;;;;;;15.12;52.05;99541.63;5076918;28;20044;-67
2024/03/15 10:20:33;;;;;;;3.33;2.42;;;;;;;15.05;50.05;99534.06;5077350;28;20054;-69
2024/03/15 10:23:02;;;;;;;1.98;1.77;;;;;;;15.11;50.65;99533.97;5076603;28;20071;-68
2024/03/15 10:25:34;;;;;;;1.75;1.65;;;;;;;15.20;49.14;99537.19;5076650;28;20044;-68
2024/03/15 10:28:03;;;;;;;1.45;1.35;;;;;;;15.33;48.78;99530.06;5044810;28;20059;-69
2024/03/15 10:30:33;;;;;;;2.13;1.90;;;;;;;15.54;49.39;99529.59;5059793;28;20044;-68
2024/03/15 10:33:04;;;;;;;5.40;2.65;;;;;;;15.71;49.20;99531.75;5060343;28;20036;-68
2024/03/15 10:35:34;;;;;;;1.77;1.65;;;;;;;15.81;49.27;99526.34;5076599;28;20048;-69
2024/03/15 10:38:03;;;;;;;0.80;0.80;;;;;;;15.82;49.11;99504.88;5077028;28;20055;-68
2024/03/15 10:40:34;;;;;;;2.20;1.83;;;;;;;16.15;49.07;99525.53;5076716;28;20458;-68
2024/03/15 10:43:08;;;;;;;1.48;1.38;;;;;;;16.20;48.79;99524.50;5077233;28;20123;-68
2024/03/15 10:45:37;;;;;;;2.33;1.70;;;;;;;16.12;48.65;99520.44;5077444;28;20054;-67
2024/03/15 10:48:08;;;;;;;2.37;1.67;;;;;;;16.14;48.72;99526.41;5076297;28;20044;-68
2024/03/15 10:50:37;;;;;;;2.50;1.98;;;;;;;16.35;48.10;99525.81;5076691;28;20072;-69
2024/03/15 10:53:06;;;;;;;1.55;1.38;;;;;;;16.35;46.36;99515.53;5076661;28;20044;-68
2024/03/15 10:55:34;;;;;;;1.63;1.38;;;;;;;16.49;46.99;99523.72;5060022;28;20044;-68
2024/03/15 10:58:04;;;;;;;2.25;1.75;;;;;;;16.51;46.54;99512.53;5076351;28;20046;-69
2024/03/15 11:00:34;;;;;;;1.42;1.15;;;;;;;16.43;45.25;99524.75;5061171;28;20051;-68
2024/03/15 11:03:11;;;;;;;1.08;0.80;;;;;;;16.39;45.47;99527.44;5059889;28;20042;-69
2024/03/15 11:05:40;;;;;;;1.20;0.90;;;;;;;16.51;45.59;99514.22;5076542;28;20058;-70
2024/03/15 11:08:09;;;;;;;1.93;1.60;;;;;;;16.69;45.64;99511.19;5076120;28;20097;-67
2024/03/15 11:10:38;;;;;;;1.13;1.02;;;;;;;16.83;45.90;99516.78;5075985;28;20052;-68
2024/03/15 11:13:07;;;;;;;2.27;1.83;;;;;;;16.93;45.83;99509.63;5076408;28;20466;-69
2024/03/15 11:15:36;;;;;;;;;;;;;;;16.98;44.84;99506.03;5076445;28;20047;-67
2024/03/15 11:18:05;;;;;;;0.50;0.50;;;;;;;17.13;44.15;99508.13;5076248;28;19927;-68
2024/03/15 11:20:53;;;;;;;1.20;1.10;;;;;;;17.00;44.23;99504.25;5076384;28;20032;-68
2024/03/15 11:23:22;;;;;;;3.42;1.40;;;;;;;17.01;45.54;99498.19;5092518;28;20052;-68
2024/03/15 11:25:55;;;;;;;1.87;1.70;;;;;;;17.05;45.89;99494.66;5059832;28;20040;-68
2024/03/15 11:28:24;;;;;;;1.70;1.20;;;;;;;16.99;46.36;99489.66;5059987;28;20048;-68
2024/03/15 11:30:53;;;;;;;2.13;1.67;;;;;;;17.09;46.84;99492.81;5076102;28;20067;-67
2024/03/15 11:33:22;;;;;;;3.10;1.25;;;;;;;17.22;46.63;99488.97;5059530;28;20452;-68
2024/03/15 11:35:51;;;;;;;1.70;1.33;;;;;;;17.18;46.20;99490.78;5076212;28;20040;-68
2024/03/15 11:38:20;;;;;;;1.05;0.95;;;;;;;17.34;46.46;99486.88;5076160;28;20036;-68
2024/03/15 11:40:49;;;;;;;1.98;1.33;;;;;;;17.19;44.82;99486.47;5075818;28;20044;-68
2024/03/15 11:43:18;;;;;;;1.30;1.20;;;;;;;16.97;45.22;99481.13;5080124;28;20064;-67
2024/03/15 11:45:47;;;;;;;0.90;0.90;;;;;;;17.21;46.19;99485.53;5080202;28;20044;-68
2024/03/15 11:48:16;;;;;;;1.55;1.08;;;;;;;17.40;45.31;99478.91;5079849;28;20040;-68
2024/03/15 11:50:46;;;;;;;5.85;2.08;;;;;;;17.48;44.71;99472.66;5080143;28;20051;-68
2024/03/15 11:53:14;;;;;;;1.67;1.57;;;;;;;17.35;44.29;99456.72;5079921;28;20047;-68
2024/03/15 11:55:43;;;;;;;1.48;1.33;;;;;;;17.48;44.31;99472.66;5079435;28;20052;-68